Thala, Tunisia
Current Conditions -  °F | °C
As of 7:00 AM on Wednesday 28 Jan 2015 (Local Time) from DABS Reporting Station
Broken Clouds Broken Clouds  
Wind Chill: 33°   Ceiling: 3300
Heat Index: 43°   Visibility: 6mi
Dew Point: 37°   Wind: 24mph
Humidity: 81%   Direction: 300°WNW
Pressure: 29.97"   Gusts: NA
Location:  35.58°N, 8.67°E
Report Text: DABS 280600Z 30021KT 9999 SCT020 BKN033 06/03 Q1015
Loading
Personal Weather Stations






























Interactive Weather Map New forecast layout! Learn more

10-Day Weather Forecast

Advertisements
Track Severe Weather on mobile